sensor_id;sensor_type;location;lat;lon;timestamp;pressure;altitude;pressure_sealevel;temperature;humidity
64713;BME280;51140;45.340;5.980;2023-01-29T00:01:37;99041.53;;;0.14;100.00
64713;BME280;51140;45.340;5.980;2023-01-29T00:04:02;99057.72;;;0.10;100.00
64713;BME280;51140;45.340;5.980;2023-01-29T00:06:28;99060.28;;;0.09;100.00
64713;BME280;51140;45.340;5.980;2023-01-29T00:08:53;99070.56;;;0.15;100.00
64713;BME280;51140;45.340;5.980;2023-01-29T00:11:19;99071.41;;;0.17;100.00
64713;BME280;51140;45.340;5.980;2023-01-29T00:13:45;99074.81;;;0.16;100.00
64713;BME280;51140;45.340;5.980;2023-01-29T00:16:10;99060.31;;;0.16;100.00
64713;BME280;51140;45.340;5.980;2023-01-29T00:18:39;99058.59;;;0.12;100.00
64713;BME280;51140;45.340;5.980;2023-01-29T00:21:16;99051.75;;;0.14;100.00
64713;BME280;51140;45.340;5.980;2023-01-29T00:23:43;99053.47;;;0.11;100.00
64713;BME280;51140;45.340;5.980;2023-01-29T00:26:09;99053.47;;;0.15;100.00
64713;BME280;51140;45.340;5.980;2023-01-29T00:28:34;99051.75;;;0.13;100.00
64713;BME280;51140;45.340;5.980;2023-01-29T00:31:27;99045.81;;;0.18;100.00
64713;BME280;51140;45.340;5.980;2023-01-29T00:33:52;99023.59;;;0.16;100.00
64713;BME280;51140;45.340;5.980;2023-01-29T00:36:19;99027.00;;;0.15;100.00
64713;BME280;51140;45.340;5.980;2023-01-29T00:38:46;99028.69;;;0.13;100.00
64713;BME280;51140;45.340;5.980;2023-01-29T00:41:19;99032.13;;;0.13;100.00
64713;BME280;51140;45.340;5.980;2023-01-29T00:44:05;99044.94;;;0.12;100.00
64713;BME280;51140;45.340;5.980;2023-01-29T00:46:48;99045.78;;;0.15;100.00
64713;BME280;51140;45.340;5.980;2023-01-29T00:49:14;99054.31;;;0.11;100.00
64713;BME280;51140;45.340;5.980;2023-01-29T00:51:39;99049.16;;;0.05;100.00
64713;BME280;51140;45.340;5.980;2023-01-29T00:54:05;99071.38;;;0.08;100.00
64713;BME280;51140;45.340;5.980;2023-01-29T00:56:35;99075.66;;;0.09;100.00
64713;BME280;51140;45.340;5.980;2023-01-29T00:59:01;99070.53;;;0.09;100.00
64713;BME280;51140;45.340;5.980;2023-01-29T01:01:27;99067.97;;;0.06;100.00
64713;BME280;51140;45.340;5.980;2023-01-29T01:04:11;99061.13;;;0.08;100.00
64713;BME280;51140;45.340;5.980;2023-01-29T01:06:37;99064.56;;;0.08;100.00
64713;BME280;51140;45.340;5.980;2023-01-29T01:09:04;99071.41;;;0.12;100.00
64713;BME280;51140;45.340;5.980;2023-01-29T01:11:47;99074.81;;;0.13;100.00
64713;BME280;51140;45.340;5.980;2023-01-29T01:14:13;99081.63;;;0.11;100.00
64713;BME280;51140;45.340;5.980;2023-01-29T01:16:38;99096.06;;;-0.01;100.00
64713;BME280;51140;45.340;5.980;2023-01-29T01:19:04;99112.31;;;0.00;100.00
64713;BME280;51140;45.340;5.980;2023-01-29T01:21:29;99110.63;;;0.04;100.00
64713;BME280;51140;45.340;5.980;2023-01-29T01:23:54;99114.06;;;0.03;100.00
64713;BME280;51140;45.340;5.980;2023-01-29T01:26:20;99117.44;;;0.00;100.00
64713;BME280;51140;45.340;5.980;2023-01-29T01:28:45;99111.47;;;0.01;100.00
64713;BME280;51140;45.340;5.980;2023-01-29T01:31:12;99104.59;;;-0.05;100.00
64713;BME280;51140;45.340;5.980;2023-01-29T01:33:37;99109.69;;;-0.08;100.00
64713;BME280;51140;45.340;5.980;2023-01-29T01:36:04;99102.84;;;-0.09;100.00
64713;BME280;51140;45.340;5.980;2023-01-29T01:38:29;99103.69;;;-0.13;100.00
64713;BME280;51140;45.340;5.980;2023-01-29T01:40:55;99101.97;;;-0.14;100.00
64713;BME280;51140;45.340;5.980;2023-01-29T01:43:20;99104.53;;;-0.15;100.00
64713;BME280;51140;45.340;5.980;2023-01-29T01:45:45;99115.63;;;-0.15;100.00
64713;BME280;51140;45.340;5.980;2023-01-29T01:48:25;99119.91;;;-0.12;100.00
64713;BME280;51140;45.340;5.980;2023-01-29T01:50:55;99112.22;;;-0.12;100.00
64713;BME280;51140;45.340;5.980;2023-01-29T01:53:30;99102.84;;;-0.13;100.00
64713;BME280;51140;45.340;5.980;2023-01-29T01:56:05;99096.88;;;-0.12;100.00
64713;BME280;51140;45.340;5.980;2023-01-29T01:58:34;99112.22;;;-0.12;100.00
64713;BME280;51140;45.340;5.980;2023-01-29T02:01:03;99107.97;;;-0.13;100.00
64713;BME280;51140;45.340;5.980;2023-01-29T02:03:34;99101.13;;;-0.16;100.00
64713;BME280;51140;45.340;5.980;2023-01-29T02:06:20;99099.41;;;-0.17;100.00
64713;BME280;51140;45.340;5.980;2023-01-29T02:09:08;99101.94;;;-0.20;100.00
64713;BME280;51140;45.340;5.980;2023-01-29T02:11:54;99117.31;;;-0.21;100.00
64713;BME280;51140;45.340;5.980;2023-01-29T02:14:20;99117.31;;;-0.21;100.00
64713;BME280;51140;45.340;5.980;2023-01-29T02:16:46;99124.94;;;-0.26;100.00
64713;BME280;51140;45.340;5.980;2023-01-29T02:22:05;99140.34;;;-0.23;100.00
64713;BME280;51140;45.340;5.980;2023-01-29T02:30:22;99140.28;;;-0.30;100.00
64713;BME280;51140;45.340;5.980;2023-01-29T02:33:04;99146.22;;;-0.35;100.00
64713;BME280;51140;45.340;5.980;2023-01-29T02:35:47;99150.50;;;-0.32;100.00
64713;BME280;51140;45.340;5.980;2023-01-29T02:40:54;99147.06;;;-0.39;100.00
64713;BME280;51140;45.340;5.980;2023-01-29T02:48:48;99105.19;;;-0.41;100.00
64713;BME280;51140;45.340;5.980;2023-01-29T02:51:25;99077.03;;;-0.42;100.00
64713;BME280;51140;45.340;5.980;2023-01-29T02:54:09;99053.13;;;-0.44;100.00
64713;BME280;51140;45.340;5.980;2023-01-29T02:56:53;99030.09;;;-0.44;100.00
64713;BME280;51140;45.340;5.980;2023-01-29T02:59:30;99011.31;;;-0.46;100.00
64713;BME280;51140;45.340;5.980;2023-01-29T03:02:02;98996.81;;;-0.46;100.00
64713;BME280;51140;45.340;5.980;2023-01-29T03:04:32;98972.91;;;-0.49;100.00
64713;BME280;51140;45.340;5.980;2023-01-29T03:07:05;98955.84;;;-0.46;100.00
64713;BME280;51140;45.340;5.980;2023-01-29T03:09:43;98937.09;;;-0.45;100.00
64713;BME280;51140;45.340;5.980;2023-01-29T03:12:16;98916.59;;;-0.51;100.00
64713;BME280;51140;45.340;5.980;2023-01-29T03:14:59;98893.56;;;-0.54;100.00
64713;BME280;51140;45.340;5.980;2023-01-29T03:17:43;98898.66;;;-0.54;100.00
64713;BME280;51140;45.340;5.980;2023-01-29T03:20:15;98898.66;;;-0.55;100.00
64713;BME280;51140;45.340;5.980;2023-01-29T03:22:44;98892.66;;;-0.64;100.00
64713;BME280;51140;45.340;5.980;2023-01-29T03:25:14;98887.53;;;-0.67;100.00
64713;BME280;51140;45.340;5.980;2023-01-29T03:28:00;98894.34;;;-0.66;100.00
64713;BME280;51140;45.340;5.980;2023-01-29T03:30:59;98894.34;;;-0.66;100.00
64713;BME280;51140;45.340;5.980;2023-01-29T03:33:48;98907.16;;;-0.64;100.00
64713;BME280;51140;45.340;5.980;2023-01-29T03:36:39;98907.13;;;-0.72;100.00
64713;BME280;51140;45.340;5.980;2023-01-29T03:39:11;98919.06;;;-0.72;100.00
64713;BME280;51140;45.340;5.980;2023-01-29T03:41:43;98922.44;;;-0.78;100.00
64713;BME280;51140;45.340;5.980;2023-01-29T03:44:24;98929.28;;;-0.75;100.00
64713;BME280;51140;45.340;5.980;2023-01-29T03:47:17;98926.69;;;-0.80;100.00
64713;BME280;51140;45.340;5.980;2023-01-29T03:52:24;98951.47;;;-0.73;100.00
64713;BME280;51140;45.340;5.980;2023-01-29T03:57:25;98958.28;;;-0.72;100.00
64713;BME280;51140;45.340;5.980;2023-01-29T04:00:05;98959.16;;;-0.70;100.00
64713;BME280;51140;45.340;5.980;2023-01-29T04:03:22;98964.28;;;-0.65;100.00
64713;BME280;51140;45.340;5.980;2023-01-29T04:05:24;98979.66;;;-0.64;100.00
64713;BME280;51140;45.340;5.980;2023-01-29T04:07:58;98981.34;;;-0.69;100.00
64713;BME280;51140;45.340;5.980;2023-01-29T04:10:26;98982.19;;;-0.70;100.00
64713;BME280;51140;45.340;5.980;2023-01-29T04:13:01;98987.28;;;-0.70;100.00
64713;BME280;51140;45.340;5.980;2023-01-29T04:15:30;98983.88;;;-0.70;100.00
64713;BME280;51140;45.340;5.980;2023-01-29T04:17:56;98985.56;;;-0.72;100.00
64713;BME280;51140;45.340;5.980;2023-01-29T04:20:22;98988.16;;;-0.71;100.00
64713;BME280;51140;45.340;5.980;2023-01-29T04:22:50;98976.97;;;-0.80;100.00
64713;BME280;51140;45.340;5.980;2023-01-29T04:25:19;98946.25;;;-0.83;100.00
64713;BME280;51140;45.340;5.980;2023-01-29T04:27:59;98925.78;;;-0.86;100.00
64713;BME280;51140;45.340;5.980;2023-01-29T04:30:53;98918.94;;;-0.89;100.00
64713;BME280;51140;45.340;5.980;2023-01-29T04:36:28;98874.56;;;-1.00;100.00
64713;BME280;51140;45.340;5.980;2023-01-29T04:39:14;98871.16;;;-0.99;100.00
64713;BME280;51140;45.340;5.980;2023-01-29T04:41:53;98868.59;;;-0.99;100.00
64713;BME280;51140;45.340;5.980;2023-01-29T04:44:40;98867.72;;;-1.01;100.00
64713;BME280;51140;45.340;5.980;2023-01-29T04:52:34;98899.28;;;-0.96;100.00
64713;BME280;51140;45.340;5.980;2023-01-29T04:55:33;98898.44;;;-0.97;100.00
64713;BME280;51140;45.340;5.980;2023-01-29T04:58:06;98906.13;;;-0.95;100.00
64713;BME280;51140;45.340;5.980;2023-01-29T05:00:41;98908.69;;;-0.93;100.00
64713;BME280;51140;45.340;5.980;2023-01-29T05:03:07;98912.09;;;-0.96;100.00
64713;BME280;51140;45.340;5.980;2023-01-29T05:05:34;98908.66;;;-1.00;100.00
64713;BME280;51140;45.340;5.980;2023-01-29T05:08:01;98928.25;;;-1.00;100.00
64713;BME280;51140;45.340;5.980;2023-01-29T05:10:27;98933.38;;;-0.97;100.00
64713;BME280;51140;45.340;5.980;2023-01-29T05:12:59;98938.47;;;-1.00;100.00
64713;BME280;51140;45.340;5.980;2023-01-29T05:15:33;98940.16;;;-1.05;100.00
64713;BME280;51140;45.340;5.980;2023-01-29T05:17:59;98938.41;;;-1.09;100.00
64713;BME280;51140;45.340;5.980;2023-01-29T05:20:31;98953.75;;;-1.11;100.00
64713;BME280;51140;45.340;5.980;2023-01-29T05:22:58;98946.09;;;-1.09;100.00
64713;BME280;51140;45.340;5.980;2023-01-29T05:25:26;98949.53;;;-1.04;100.00
64713;BME280;51140;45.340;5.980;2023-01-29T05:27:52;98950.34;;;-1.08;100.00
64713;BME280;51140;45.340;5.980;2023-01-29T05:30:56;98956.28;;;-1.12;100.00
64713;BME280;51140;45.340;5.980;2023-01-29T05:33:27;98969.09;;;-1.11;100.00
64713;BME280;51140;45.340;5.980;2023-01-29T05:35:54;98980.19;;;-1.09;100.00
64713;BME280;51140;45.340;5.980;2023-01-29T05:38:20;98990.41;;;-1.09;100.00
64713;BME280;51140;45.340;5.980;2023-01-29T05:40:46;98986.97;;;-1.12;100.00
64713;BME280;51140;45.340;5.980;2023-01-29T05:43:17;98992.09;;;-1.11;100.00
64713;BME280;51140;45.340;5.980;2023-01-29T05:45:54;98986.97;;;-1.12;100.00
64713;BME280;51140;45.340;5.980;2023-01-29T05:48:19;98982.72;;;-1.13;100.00
64713;BME280;51140;45.340;5.980;2023-01-29T05:50:45;98994.66;;;-1.09;100.00
64713;BME280;51140;45.340;5.980;2023-01-29T05:53:10;99004.03;;;-1.10;100.00
64713;BME280;51140;45.340;5.980;2023-01-29T05:55:35;99001.44;;;-1.17;100.00
64713;BME280;51140;45.340;5.980;2023-01-29T05:58:01;98980.00;;;-1.27;100.00
64713;BME280;51140;45.340;5.980;2023-01-29T06:00:26;98980.84;;;-1.31;100.00
64713;BME280;51140;45.340;5.980;2023-01-29T06:02:52;98975.75;;;-1.28;100.00
64713;BME280;51140;45.340;5.980;2023-01-29T06:05:17;98968.03;;;-1.33;100.00
64713;BME280;51140;45.340;5.980;2023-01-29T06:07:42;98973.19;;;-1.27;100.00
64713;BME280;51140;45.340;5.980;2023-01-29T06:10:13;98978.31;;;-1.27;100.00
64713;BME280;51140;45.340;5.980;2023-01-29T06:12:40;98974.88;;;-1.32;100.00
64713;BME280;51140;45.340;5.980;2023-01-29T06:15:05;98970.59;;;-1.34;100.00
64713;BME280;51140;45.340;5.980;2023-01-29T06:17:31;98972.28;;;-1.33;100.00
64713;BME280;51140;45.340;5.980;2023-01-29T06:19:56;98970.59;;;-1.33;100.00
64713;BME280;51140;45.340;5.980;2023-01-29T06:22:21;98973.97;;;-1.35;100.00
64713;BME280;51140;45.340;5.980;2023-01-29T06:24:47;98981.69;;;-1.31;100.00
64713;BME280;51140;45.340;5.980;2023-01-29T06:27:12;98986.78;;;-1.32;100.00
64713;BME280;51140;45.340;5.980;2023-01-29T06:29:38;98982.53;;;-1.30;100.00
64713;BME280;51140;45.340;5.980;2023-01-29T06:32:03;98985.94;;;-1.31;100.00
64713;BME280;51140;45.340;5.980;2023-01-29T06:34:29;98989.38;;;-1.28;100.00
64713;BME280;51140;45.340;5.980;2023-01-29T06:36:54;98987.66;;;-1.30;100.00
64713;BME280;51140;45.340;5.980;2023-01-29T06:39:19;98992.78;;;-1.27;100.00
64713;BME280;51140;45.340;5.980;2023-01-29T06:41:45;99006.44;;;-1.25;100.00
64713;BME280;51140;45.340;5.980;2023-01-29T06:44:10;99020.00;;;-1.32;100.00
64713;BME280;51140;45.340;5.980;2023-01-29T06:46:36;99022.59;;;-1.29;100.00
64713;BME280;51140;45.340;5.980;2023-01-29T06:49:01;99022.63;;;-1.24;100.00
64713;BME280;51140;45.340;5.980;2023-01-29T06:51:26;99025.28;;;-1.18;100.00
64713;BME280;51140;45.340;5.980;2023-01-29T06:53:52;99011.59;;;-1.20;100.00
64713;BME280;51140;45.340;5.980;2023-01-29T06:56:20;99015.06;;;-1.18;100.00
64713;BME280;51140;45.340;5.980;2023-01-29T06:58:46;99005.66;;;-1.19;100.00
64713;BME280;51140;45.340;5.980;2023-01-29T07:01:12;98993.66;;;-1.25;100.00
64713;BME280;51140;45.340;5.980;2023-01-29T07:03:37;98979.16;;;-1.28;100.00
64713;BME280;51140;45.340;5.980;2023-01-29T07:06:04;98980.00;;;-1.29;100.00
64713;BME280;51140;45.340;5.980;2023-01-29T07:08:29;98981.69;;;-1.32;100.00
64713;BME280;51140;45.340;5.980;2023-01-29T07:11:02;98978.31;;;-1.28;100.00
64713;BME280;51140;45.340;5.980;2023-01-29T07:13:27;98980.00;;;-1.29;100.00
64713;BME280;51140;45.340;5.980;2023-01-29T07:15:53;98974.03;;;-1.29;100.00
64713;BME280;51140;45.340;5.980;2023-01-29T07:18:18;98980.00;;;-1.30;100.00
64713;BME280;51140;45.340;5.980;2023-01-29T07:20:43;98983.38;;;-1.34;100.00
64713;BME280;51140;45.340;5.980;2023-01-29T07:23:11;98985.94;;;-1.33;100.00
64713;BME280;51140;45.340;5.980;2023-01-29T07:25:37;98980.81;;;-1.33;100.00
64713;BME280;51140;45.340;5.980;2023-01-29T07:28:03;98977.41;;;-1.32;100.00
64713;BME280;51140;45.340;5.980;2023-01-29T07:30:29;98982.56;;;-1.29;100.00
64713;BME280;51140;45.340;5.980;2023-01-29T07:32:54;98974.81;;;-1.36;100.00
64713;BME280;51140;45.340;5.980;2023-01-29T07:35:20;98970.56;;;-1.36;100.00
64713;BME280;51140;45.340;5.980;2023-01-29T07:37:49;98968.03;;;-1.33;100.00
64713;BME280;51140;45.340;5.980;2023-01-29T07:40:14;98970.59;;;-1.31;100.00
64713;BME280;51140;45.340;5.980;2023-01-29T07:42:40;98963.81;;;-1.29;100.00
64713;BME280;51140;45.340;5.980;2023-01-29T07:45:10;98969.81;;;-1.22;100.00
64713;BME280;51140;45.340;5.980;2023-01-29T07:47:36;98958.84;;;-1.14;100.00
64713;BME280;51140;45.340;5.980;2023-01-29T07:50:02;98955.44;;;-1.11;100.00
64713;BME280;51140;45.340;5.980;2023-01-29T07:52:29;98954.63;;;-1.09;100.00
64713;BME280;51140;45.340;5.980;2023-01-29T07:54:55;98959.81;;;-0.98;100.00
64713;BME280;51140;45.340;5.980;2023-01-29T07:57:21;98964.97;;;-0.92;100.00
64713;BME280;51140;45.340;5.980;2023-01-29T07:59:46;98977.78;;;-0.87;100.00
64713;BME280;51140;45.340;5.980;2023-01-29T08:02:11;98977.75;;;-0.92;100.00
64713;BME280;51140;45.340;5.980;2023-01-29T08:04:37;98982.03;;;-0.89;100.00
64713;BME280;51140;45.340;5.980;2023-01-29T08:07:02;98989.75;;;-0.82;100.00
64713;BME280;51140;45.340;5.980;2023-01-29T08:09:29;98982.06;;;-0.85;100.00
64713;BME280;51140;45.340;5.980;2023-01-29T08:11:54;98982.97;;;-0.80;100.00
64713;BME280;51140;45.340;5.980;2023-01-29T08:14:20;98978.72;;;-0.76;100.00
64713;BME280;51140;45.340;5.980;2023-01-29T08:16:45;98976.16;;;-0.78;100.00
64713;BME280;51140;45.340;5.980;2023-01-29T08:19:10;98975.38;;;-0.66;100.00
64713;BME280;51140;45.340;5.980;2023-01-29T08:21:36;98966.03;;;-0.56;100.00
64713;BME280;51140;45.340;5.980;2023-01-29T08:24:01;98952.38;;;-0.58;100.00
64713;BME280;51140;45.340;5.980;2023-01-29T08:26:27;98957.56;;;-0.43;100.00
64713;BME280;51140;45.340;5.980;2023-01-29T08:28:53;98949.03;;;-0.47;100.00
64713;BME280;51140;45.340;5.980;2023-01-29T08:31:19;98953.38;;;-0.32;100.00
64713;BME280;51140;45.340;5.980;2023-01-29T08:33:45;98939.75;;;-0.25;100.00
64713;BME280;51140;45.340;5.980;2023-01-29T08:36:10;98921.84;;;-0.20;100.00
64713;BME280;51140;45.340;5.980;2023-01-29T08:38:36;98898.81;;;-0.19;100.00
64713;BME280;51140;45.340;5.980;2023-01-29T08:41:01;98881.75;;;-0.12;100.00
64713;BME280;51140;45.340;5.980;2023-01-29T08:43:27;98871.53;;;-0.06;100.00
64713;BME280;51140;45.340;5.980;2023-01-29T08:45:52;98872.44;;;0.07;100.00
64713;BME280;51140;45.340;5.980;2023-01-29T08:48:18;98869.88;;;0.23;100.00
64713;BME280;51140;45.340;5.980;2023-01-29T08:50:43;98862.19;;;0.37;100.00
64713;BME280;51140;45.340;5.980;2023-01-29T08:53:09;98842.56;;;0.42;100.00
64713;BME280;51140;45.340;5.980;2023-01-29T08:55:36;98839.13;;;0.52;100.00
64713;BME280;51140;45.340;5.980;2023-01-29T08:58:03;98834.81;;;0.79;100.00
64713;BME280;51140;45.340;5.980;2023-01-29T09:00:29;98821.09;;;1.04;100.00
64713;BME280;51140;45.340;5.980;2023-01-29T09:02:55;98815.88;;;1.32;100.00
64713;BME280;51140;45.340;5.980;2023-01-29T09:05:20;98800.44;;;1.39;100.00
64713;BME280;51140;45.340;5.980;2023-01-29T09:07:45;98793.50;;;1.55;100.00
64713;BME280;51140;45.340;5.980;2023-01-29T09:10:11;98796.91;;;1.58;100.00
64713;BME280;51140;45.340;5.980;2023-01-29T09:12:37;98786.56;;;1.72;100.00
64713;BME280;51140;45.340;5.980;2023-01-29T09:15:03;98784.81;;;1.77;100.00
64713;BME280;51140;45.340;5.980;2023-01-29T09:17:28;98783.81;;;1.98;100.00
64713;BME280;51140;45.340;5.980;2023-01-29T09:19:53;98790.66;;;2.01;100.00
64713;BME280;51140;45.340;5.980;2023-01-29T09:22:19;98806.91;;;2.04;100.00
64713;BME280;51140;45.340;5.980;2023-01-29T09:24:44;98808.41;;;2.31;100.00
64713;BME280;51140;45.340;5.980;2023-01-29T09:27:10;98816.19;;;2.22;100.00
64713;BME280;51140;45.340;5.980;2023-01-29T09:29:35;98820.34;;;2.37;100.00
64713;BME280;51140;45.340;5.980;2023-01-29T09:32:03;98831.72;;;2.08;100.00
64713;BME280;51140;45.340;5.980;2023-01-29T09:34:28;98842.81;;;2.16;100.00
64713;BME280;51140;45.340;5.980;2023-01-29T09:36:54;98850.44;;;2.26;100.00
64713;BME280;51140;45.340;5.980;2023-01-29T09:39:19;98849.50;;;2.36;100.00
64713;BME280;51140;45.340;5.980;2023-01-29T09:47:25;98872.78;;;2.17;100.00
64713;BME280;51140;45.340;5.980;2023-01-29T09:49:56;98877.09;;;2.12;100.00
64713;BME280;51140;45.340;5.980;2023-01-29T09:52:35;98886.50;;;2.16;100.00
64713;BME280;51140;45.340;5.980;2023-01-29T09:55:08;98895.97;;;2.08;100.00
64713;BME280;51140;45.340;5.980;2023-01-29T10:06:20;98904.56;;;2.00;100.00
64713;BME280;51140;45.340;5.980;2023-01-29T10:20:25;98905.31;;;2.23;100.00
64713;BME280;51140;45.340;5.980;2023-01-29T10:25:47;98897.34;;;2.57;100.00
64713;BME280;51140;45.340;5.980;2023-01-29T10:28:48;98895.56;;;2.66;100.00
64713;BME280;51140;45.340;5.980;2023-01-29T10:31:29;98887.75;;;2.77;100.00
64713;BME280;51140;45.340;5.980;2023-01-29T10:36:40;98880.78;;;2.91;100.00
64713;BME280;51140;45.340;5.980;2023-01-29T10:39:25;98873.94;;;2.89;100.00
64713;BME280;51140;45.340;5.980;2023-01-29T11:00:58;98861.13;;;3.59;100.00
64713;BME280;51140;45.340;5.980;2023-01-29T11:03:29;98859.28;;;3.72;100.00
64713;BME280;51140;45.340;5.980;2023-01-29T11:08:58;98857.38;;;3.85;100.00
64713;BME280;51140;45.340;5.980;2023-01-29T11:17:29;98861.81;;;3.75;100.00
64713;BME280;51140;45.340;5.980;2023-01-29T11:19:54;98860.53;;;4.06;100.00
64713;BME280;51140;45.340;5.980;2023-01-29T11:22:24;98860.63;;;3.99;100.00
64713;BME280;51140;45.340;5.980;2023-01-29T11:25:17;98865.00;;;3.94;100.00
64713;BME280;51140;45.340;5.980;2023-01-29T11:27:45;98858.84;;;4.04;100.00
64713;BME280;51140;45.340;5.980;2023-01-29T11:33:40;98860.91;;;3.77;100.00
64713;BME280;51140;45.340;5.980;2023-01-29T11:35:42;98859.75;;;4.00;100.00
64713;BME280;51140;45.340;5.980;2023-01-29T11:38:23;98859.13;;;3.83;100.00
64713;BME280;51140;45.340;5.980;2023-01-29T11:40:50;98870.59;;;3.62;100.00
64713;BME280;51140;45.340;5.980;2023-01-29T11:43:28;98856.59;;;3.80;100.00
64713;BME280;51140;45.340;5.980;2023-01-29T11:45:57;98861.75;;;3.80;100.00
64713;BME280;51140;45.340;5.980;2023-01-29T11:48:45;98853.75;;;3.98;100.00
64713;BME280;51140;45.340;5.980;2023-01-29T11:51:33;98854.75;;;3.88;100.00
64713;BME280;51140;45.340;5.980;2023-01-29T11:54:01;98850.97;;;4.15;100.00
64713;BME280;51140;45.340;5.980;2023-01-29T11:56:31;98850.75;;;4.28;100.00
64713;BME280;51140;45.340;5.980;2023-01-29T11:58:58;98857.88;;;4.13;100.00
64713;BME280;51140;45.340;5.980;2023-01-29T12:03:56;98860.56;;;4.05;100.00
64713;BME280;51140;45.340;5.980;2023-01-29T12:06:48;98867.16;;;4.24;100.00
64713;BME280;51140;45.340;5.980;2023-01-29T12:09:18;98865.38;;;4.28;100.00
64713;BME280;51140;45.340;5.980;2023-01-29T12:11:45;98858.84;;;4.61;100.00
64713;BME280;51140;45.340;5.980;2023-01-29T12:14:26;98872.97;;;4.35;100.00
64713;BME280;51140;45.340;5.980;2023-01-29T12:16:57;98865.84;;;4.53;100.00
64713;BME280;51140;45.340;5.980;2023-01-29T12:19:36;98858.75;;;4.65;100.00
64713;BME280;51140;45.340;5.980;2023-01-29T12:22:09;98877.06;;;4.50;100.00
64713;BME280;51140;45.340;5.980;2023-01-29T12:24:40;98884.78;;;4.52;100.00
64713;BME280;51140;45.340;5.980;2023-01-29T12:27:21;98878.53;;;4.66;100.00
64713;BME280;51140;45.340;5.980;2023-01-29T12:35:34;98897.97;;;4.87;100.00
64713;BME280;51140;45.340;5.980;2023-01-29T12:38:20;98893.25;;;5.11;100.00
64713;BME280;51140;45.340;5.980;2023-01-29T12:40:52;98891.34;;;5.22;100.00
64713;BME280;51140;45.340;5.980;2023-01-29T12:43:42;98907.38;;;4.91;100.00
64713;BME280;51140;45.340;5.980;2023-01-29T12:46:21;98904.53;;;5.07;100.00
64713;BME280;51140;45.340;5.980;2023-01-29T12:48:49;98913.19;;;5.02;100.00
64713;BME280;51140;45.340;5.980;2023-01-29T12:51:22;98897.53;;;5.12;100.00
64713;BME280;51140;45.340;5.980;2023-01-29T12:54:00;98885.41;;;5.17;100.00
64713;BME280;51140;45.340;5.980;2023-01-29T12:56:34;98894.91;;;5.15;100.00
64713;BME280;51140;45.340;5.980;2023-01-29T12:59:08;98864.16;;;5.47;100.00
64713;BME280;51140;45.340;5.980;2023-01-29T13:05:19;98876.78;;;5.16;100.00
64713;BME280;51140;45.340;5.980;2023-01-29T13:07:50;98865.56;;;5.19;100.00
64713;BME280;51140;45.340;5.980;2023-01-29T13:10:25;98849.19;;;5.21;100.00
64713;BME280;51140;45.340;5.980;2023-01-29T13:13:13;98878.16;;;4.89;100.00
64713;BME280;51140;45.340;5.980;2023-01-29T13:15:42;98858.44;;;4.85;100.00
64713;BME280;51140;45.340;5.980;2023-01-29T13:20:56;98859.91;;;4.49;100.00
64713;BME280;51140;45.340;5.980;2023-01-29T13:23:29;98825.03;;;4.76;100.00
64713;BME280;51140;45.340;5.980;2023-01-29T13:25:56;98836.03;;;4.87;100.00
64713;BME280;51140;45.340;5.980;2023-01-29T13:28:24;98837.88;;;4.79;100.00
64713;BME280;51140;45.340;5.980;2023-01-29T13:33:51;98853.59;;;4.65;100.00
64713;BME280;51140;45.340;5.980;2023-01-29T13:36:24;98851.06;;;4.62;100.00
64713;BME280;51140;45.340;5.980;2023-01-29T13:38:57;98839.31;;;4.46;100.00
64713;BME280;51140;45.340;5.980;2023-01-29T13:41:31;98842.97;;;4.30;100.00
64713;BME280;51140;45.340;5.980;2023-01-29T13:43:57;98843.94;;;4.24;100.00
64713;BME280;51140;45.340;5.980;2023-01-29T13:46:23;98822.38;;;4.28;100.00
64713;BME280;51140;45.340;5.980;2023-01-29T13:48:50;98800.66;;;4.43;100.00
64713;BME280;51140;45.340;5.980;2023-01-29T13:51:19;98802.22;;;4.53;100.00
64713;BME280;51140;45.340;5.980;2023-01-29T13:53:59;98796.19;;;4.53;100.00
64713;BME280;51140;45.340;5.980;2023-01-29T13:58:59;98789.06;;;4.67;100.00
64713;BME280;51140;45.340;5.980;2023-01-29T14:06:48;98811.66;;;4.54;100.00
64713;BME280;51140;45.340;5.980;2023-01-29T14:12:02;98798.53;;;4.66;100.00
64713;BME280;51140;45.340;5.980;2023-01-29T14:17:21;98793.50;;;4.59;100.00
64713;BME280;51140;45.340;5.980;2023-01-29T14:20:01;98783.88;;;4.68;100.00
64713;BME280;51140;45.340;5.980;2023-01-29T14:22:29;98812.50;;;4.55;100.00
64713;BME280;51140;45.340;5.980;2023-01-29T14:25:01;98802.13;;;4.58;100.00
64713;BME280;51140;45.340;5.980;2023-01-29T14:27:29;98806.63;;;4.47;100.00
64713;BME280;51140;45.340;5.980;2023-01-29T14:30:00;98811.03;;;4.38;100.00
64713;BME280;51140;45.340;5.980;2023-01-29T14:32:26;98803.91;;;4.54;100.00
64713;BME280;51140;45.340;5.980;2023-01-29T14:35:02;98807.25;;;4.59;100.00
64713;BME280;51140;45.340;5.980;2023-01-29T14:39:58;98825.66;;;4.38;100.00
64713;BME280;51140;45.340;5.980;2023-01-29T14:45:21;98825.03;;;4.24;100.00
64713;BME280;51140;45.340;5.980;2023-01-29T14:52:58;98814.13;;;4.06;100.00
64713;BME280;51140;45.340;5.980;2023-01-29T14:55:29;98819.28;;;4.06;100.00
64713;BME280;51140;45.340;5.980;2023-01-29T14:57:55;98827.16;;;3.96;100.00
64713;BME280;51140;45.340;5.980;2023-01-29T15:00:33;98816.00;;;3.94;100.00
64713;BME280;51140;45.340;5.980;2023-01-29T15:03:04;98820.25;;;3.98;100.00
64713;BME280;51140;45.340;5.980;2023-01-29T15:05:37;98821.22;;;3.91;100.00
64713;BME280;51140;45.340;5.980;2023-01-29T15:08:28;98815.19;;;3.92;100.00
64713;BME280;51140;45.340;5.980;2023-01-29T15:10:56;98823.69;;;3.97;100.00
64713;BME280;51140;45.340;5.980;2023-01-29T15:13:52;98822.81;;;3.99;100.00
64713;BME280;51140;45.340;5.980;2023-01-29T15:16:35;98840.00;;;3.99;100.00
64713;BME280;51140;45.340;5.980;2023-01-29T15:19:20;98827.03;;;4.05;100.00
64713;BME280;51140;45.340;5.980;2023-01-29T15:24:30;98817.66;;;3.98;100.00
64713;BME280;51140;45.340;5.980;2023-01-29T15:26:56;98810.75;;;4.03;100.00
64713;BME280;51140;45.340;5.980;2023-01-29T15:29:23;98837.50;;;3.94;100.00
64713;BME280;51140;45.340;5.980;2023-01-29T15:31:50;98835.91;;;3.86;100.00